createdAt,value
2023-01-13T00:01:09.771Z,15.73
2023-01-13T00:03:36.720Z,17.58
2023-01-13T00:06:03.468Z,11.93
2023-01-13T00:08:30.204Z,12.27
2023-01-13T00:10:56.581Z,13.73
2023-01-13T00:13:26.572Z,15.77
2023-01-13T00:16:03.224Z,13.57
2023-01-13T00:18:29.934Z,13.57
2023-01-13T00:21:00.279Z,18.67
2023-01-13T00:23:28.670Z,14.40
2023-01-13T00:25:59.315Z,18.83
2023-01-13T00:28:26.123Z,17.95
2023-01-13T00:30:52.522Z,14.85
2023-01-13T00:33:19.215Z,13.90
2023-01-13T00:35:45.577Z,13.07
2023-01-13T00:38:11.914Z,16.40
2023-01-13T00:40:38.260Z,16.17
2023-01-13T00:43:22.770Z,18.77
2023-01-13T00:45:51.437Z,15.20
2023-01-13T00:48:19.527Z,16.27
2023-01-13T00:50:46.524Z,18.30
2023-01-13T00:53:13.907Z,17.80
2023-01-13T00:55:40.475Z,9.02
2023-01-13T00:58:06.904Z,12.73
2023-01-13T01:00:33.303Z,16.70
2023-01-13T01:02:59.893Z,15.38
2023-01-13T01:05:26.315Z,15.77
2023-01-13T01:07:52.663Z,14.95
2023-01-13T01:10:19.131Z,22.20
2023-01-13T01:12:45.547Z,17.23
2023-01-13T01:15:12.046Z,14.32
2023-01-13T01:17:38.401Z,17.83
2023-01-13T01:20:05.280Z,18.33
2023-01-13T01:22:31.692Z,15.97
2023-01-13T01:24:58.241Z,16.08
2023-01-13T01:27:24.608Z,15.50
2023-01-13T01:29:51.000Z,18.63
2023-01-13T01:32:17.415Z,16.92
2023-01-13T01:34:43.845Z,19.70
2023-01-13T01:37:10.233Z,16.73
2023-01-13T01:39:36.600Z,18.45
2023-01-13T01:42:26.181Z,20.88
2023-01-13T01:44:59.520Z,15.52
2023-01-13T01:47:27.847Z,14.27
2023-01-13T01:49:56.093Z,10.18
2023-01-13T01:52:44.379Z,16.23
2023-01-13T01:55:17.997Z,16.92
2023-01-13T01:58:15.380Z,17.85
2023-01-13T02:00:42.051Z,20.33
2023-01-13T02:03:09.839Z,16.20
2023-01-13T02:05:36.564Z,18.58
2023-01-13T02:08:03.781Z,13.73
2023-01-13T02:10:32.208Z,16.65
2023-01-13T02:13:06.598Z,18.03
2023-01-13T02:15:40.820Z,9.40
2023-01-13T02:18:25.910Z,13.60
2023-01-13T02:21:12.492Z,18.25
2023-01-13T02:24:08.626Z,16.55
2023-01-13T02:26:56.073Z,20.23
2023-01-13T02:30:15.491Z,12.68
2023-01-13T02:32:55.746Z,11.25
2023-01-13T02:35:39.554Z,16.30
2023-01-13T02:38:08.824Z,14.23
2023-01-13T02:40:48.795Z,12.13
2023-01-13T02:43:57.151Z,15.55
2023-01-13T02:46:30.915Z,13.73
2023-01-13T02:49:04.850Z,16.10
2023-01-13T02:51:32.955Z,14.20
2023-01-13T02:54:06.039Z,14.47
2023-01-13T02:56:36.190Z,14.52
2023-01-13T02:59:03.513Z,15.25
2023-01-13T03:01:30.020Z,14.45
2023-01-13T03:03:56.532Z,14.38
2023-01-13T03:06:26.446Z,9.87
2023-01-13T03:09:09.885Z,21.40
2023-01-13T03:12:23.473Z,16.83
2023-01-13T03:15:06.186Z,19.50
2023-01-13T03:17:49.933Z,11.15
2023-01-13T03:20:27.083Z,21.20
2023-01-13T03:23:02.345Z,10.63
2023-01-13T03:25:36.488Z,14.07
2023-01-13T03:28:07.085Z,19.77
2023-01-13T03:30:42.691Z,14.18
2023-01-13T03:33:17.946Z,13.70
2023-01-13T03:35:49.546Z,15.70
2023-01-13T03:38:21.707Z,15.95
2023-01-13T03:40:53.764Z,13.88
2023-01-13T03:43:45.637Z,23.80
2023-01-13T03:46:19.722Z,9.53
2023-01-13T03:48:46.665Z,15.63
2023-01-13T03:51:18.079Z,13.75
2023-01-13T03:53:49.957Z,8.23
2023-01-13T03:56:20.441Z,11.65
2023-01-13T03:58:50.434Z,13.23
2023-01-13T04:01:35.485Z,14.60
2023-01-13T04:04:13.490Z,11.98
2023-01-13T04:06:54.218Z,11.77
2023-01-13T04:09:32.454Z,10.23
2023-01-13T04:12:11.208Z,7.97
2023-01-13T04:14:37.817Z,8.93
2023-01-13T04:17:05.076Z,11.98
2023-01-13T04:19:32.978Z,13.63
2023-01-13T04:21:59.691Z,11.30
2023-01-13T04:24:26.388Z,8.57
2023-01-13T04:26:52.871Z,16.70
2023-01-13T04:29:20.324Z,12.07
2023-01-13T04:31:46.696Z,12.23
2023-01-13T04:34:13.366Z,6.90
2023-01-13T04:36:39.935Z,15.40
2023-01-13T04:39:06.446Z,9.70
2023-01-13T04:41:52.825Z,8.13
2023-01-13T04:44:19.336Z,10.77
2023-01-13T04:46:46.359Z,6.13
2023-01-13T04:49:12.786Z,13.33
2023-01-13T04:51:39.154Z,8.65
2023-01-13T04:54:05.582Z,6.63
2023-01-13T04:56:32.032Z,10.48
2023-01-13T04:58:58.402Z,11.57
2023-01-13T05:01:24.920Z,8.87
2023-01-13T05:03:51.368Z,14.00
2023-01-13T05:06:17.849Z,9.70
2023-01-13T05:08:44.203Z,9.73
2023-01-13T05:11:29.382Z,8.00
2023-01-13T05:14:14.141Z,6.07
2023-01-13T05:16:59.102Z,5.13
2023-01-13T05:19:26.084Z,4.55
2023-01-13T05:22:11.332Z,5.05
2023-01-13T05:24:56.277Z,10.60
2023-01-13T05:27:22.920Z,10.63
2023-01-13T05:29:49.259Z,11.65
2023-01-13T05:32:15.689Z,9.32
2023-01-13T05:34:42.057Z,6.72
2023-01-13T05:37:10.956Z,8.05
2023-01-13T05:39:55.906Z,5.03
2023-01-13T05:42:41.064Z,12.02
2023-01-13T05:45:08.117Z,9.50
2023-01-13T05:47:34.563Z,7.32
2023-01-13T05:50:01.049Z,11.85
2023-01-13T05:52:28.649Z,10.43
2023-01-13T05:54:55.162Z,12.07
2023-01-13T05:57:22.213Z,10.65
2023-01-13T05:59:48.670Z,9.52
2023-01-13T06:02:15.054Z,9.23
2023-01-13T06:04:41.529Z,12.63
2023-01-13T06:07:07.912Z,12.00
2023-01-13T06:09:34.386Z,4.47
2023-01-13T06:12:00.811Z,10.02
2023-01-13T06:14:39.867Z,7.35
2023-01-13T06:17:10.791Z,5.43
2023-01-13T06:19:37.572Z,6.25
2023-01-13T06:22:11.748Z,5.40
2023-01-13T06:24:38.119Z,10.73
2023-01-13T06:27:05.953Z,9.98
2023-01-13T06:29:32.411Z,6.73
2023-01-13T06:32:00.997Z,9.40
2023-01-13T06:34:27.467Z,15.63
2023-01-13T06:36:55.039Z,8.63
2023-01-13T06:39:24.803Z,8.02
2023-01-13T06:42:12.424Z,12.47
2023-01-13T06:44:39.512Z,9.55
2023-01-13T06:47:06.892Z,11.40
2023-01-13T06:49:33.604Z,6.88
2023-01-13T06:51:59.989Z,5.72
2023-01-13T06:54:27.770Z,7.60
2023-01-13T06:56:54.237Z,7.57
2023-01-13T06:59:20.611Z,9.25
2023-01-13T07:01:47.201Z,7.32
2023-01-13T07:04:13.835Z,10.65
2023-01-13T07:06:40.247Z,9.17
2023-01-13T07:09:06.989Z,11.25
2023-01-13T07:11:33.721Z,11.60
2023-01-13T07:14:19.799Z,8.05
2023-01-13T07:16:46.799Z,11.00
2023-01-13T07:19:13.551Z,12.07
2023-01-13T07:21:39.943Z,11.70
2023-01-13T07:24:06.621Z,7.53
2023-01-13T07:26:33.059Z,10.13
2023-01-13T07:29:00.791Z,13.25
2023-01-13T07:31:27.323Z,7.30
2023-01-13T07:33:53.837Z,13.95
2023-01-13T07:36:20.209Z,11.63
2023-01-13T07:38:46.606Z,10.40
2023-01-13T07:41:33.178Z,8.95
2023-01-13T07:44:00.406Z,11.17
2023-01-13T07:46:27.014Z,14.38
2023-01-13T07:48:53.627Z,14.27
2023-01-13T07:51:20.073Z,12.30
2023-01-13T07:53:46.581Z,12.35
2023-01-13T07:56:13.252Z,9.10
2023-01-13T07:58:39.674Z,13.63
2023-01-13T08:01:12.379Z,8.45
2023-01-13T08:03:40.638Z,12.00
2023-01-13T08:06:07.414Z,13.68
2023-01-13T08:08:33.961Z,8.40
2023-01-13T08:11:01.993Z,15.18
2023-01-13T08:13:28.547Z,8.20
2023-01-13T08:16:04.042Z,14.25
2023-01-13T08:18:32.024Z,12.50
2023-01-13T08:21:02.587Z,9.87
2023-01-13T08:23:29.053Z,7.38
2023-01-13T08:26:00.226Z,11.82
2023-01-13T08:28:27.146Z,10.57
2023-01-13T08:30:54.270Z,10.75
2023-01-13T08:33:21.026Z,12.83
2023-01-13T08:35:49.119Z,9.77
2023-01-13T08:38:15.596Z,11.10
2023-01-13T08:40:42.156Z,6.82
2023-01-13T08:43:08.571Z,12.00
2023-01-13T08:45:35.995Z,14.43
2023-01-13T08:48:02.935Z,9.45
2023-01-13T08:50:29.508Z,12.43
2023-01-13T08:52:55.967Z,13.70
2023-01-13T08:55:22.616Z,11.20
2023-01-13T08:57:49.084Z,14.10
2023-01-13T09:00:17.135Z,8.55
2023-01-13T09:02:45.044Z,11.13
2023-01-13T09:05:11.644Z,11.50
2023-01-13T09:07:38.664Z,14.07
2023-01-13T09:10:06.992Z,12.57
2023-01-13T09:12:51.987Z,9.50
2023-01-13T09:15:18.859Z,8.88
2023-01-13T09:17:45.889Z,16.00
2023-01-13T09:20:12.847Z,11.38
2023-01-13T09:22:40.692Z,9.03
2023-01-13T09:25:07.890Z,6.80
2023-01-13T09:27:34.247Z,8.15
2023-01-13T09:30:00.655Z,5.10
2023-01-13T09:32:27.031Z,8.20
2023-01-13T09:35:02.968Z,9.67
2023-01-13T09:37:38.340Z,12.00
2023-01-13T09:40:16.892Z,8.55
2023-01-13T09:43:12.123Z,10.40
2023-01-13T09:45:44.137Z,12.20
2023-01-13T09:48:22.521Z,9.33
2023-01-13T09:51:06.500Z,11.43
2023-01-13T09:53:40.446Z,10.57
2023-01-13T09:56:10.511Z,6.32
2023-01-13T09:58:39.642Z,13.35
2023-01-13T10:01:34.009Z,9.33
2023-01-13T10:04:11.606Z,7.32
2023-01-13T10:06:43.669Z,8.95
2023-01-13T10:09:46.769Z,10.10
2023-01-13T10:12:37.832Z,6.15
2023-01-13T10:15:04.718Z,9.90
2023-01-13T10:17:45.791Z,9.32
2023-01-13T10:20:24.797Z,8.57
2023-01-13T10:23:19.004Z,9.98
2023-01-13T10:26:11.546Z,10.13
2023-01-13T10:28:37.968Z,9.20
2023-01-13T10:31:11.863Z,8.48
2023-01-13T10:33:38.443Z,9.65
2023-01-13T10:36:22.917Z,10.60
2023-01-13T10:38:51.028Z,13.27
2023-01-13T10:41:20.032Z,10.30
2023-01-13T10:43:52.427Z,9.50
2023-01-13T10:46:21.507Z,11.73
2023-01-13T10:48:56.000Z,13.30
2023-01-13T10:51:22.451Z,14.18
2023-01-13T10:53:59.767Z,9.23
2023-01-13T10:56:30.234Z,7.93
2023-01-13T10:59:23.248Z,12.85
2023-01-13T11:01:58.553Z,5.88
2023-01-13T11:05:00.579Z,7.97
2023-01-13T11:07:38.503Z,11.67
2023-01-13T11:10:23.746Z,9.88
2023-01-13T11:13:04.245Z,6.82
2023-01-13T11:15:43.262Z,15.57
2023-01-13T11:18:26.771Z,6.50
2023-01-13T11:20:56.624Z,5.13
2023-01-13T11:23:30.281Z,10.88
2023-01-13T11:26:04.246Z,7.85
2023-01-13T11:29:15.371Z,8.18
2023-01-13T11:31:52.123Z,5.72
2023-01-13T11:34:35.282Z,6.77
2023-01-13T11:37:09.560Z,7.72
2023-01-13T11:40:05.633Z,7.50
2023-01-13T11:42:46.373Z,5.45
2023-01-13T11:45:27.314Z,8.95
2023-01-13T11:47:57.635Z,5.77
2023-01-13T11:50:42.925Z,7.65
2023-01-13T11:53:22.874Z,7.68
2023-01-13T11:55:58.438Z,9.90
2023-01-13T11:58:49.442Z,10.35
2023-01-13T12:01:35.440Z,6.57
2023-01-13T12:04:26.595Z,7.80
2023-01-13T12:07:01.980Z,12.00
2023-01-13T12:10:00.502Z,6.05
2023-01-13T12:12:58.356Z,8.73
2023-01-13T12:15:35.746Z,7.97
2023-01-13T12:18:40.508Z,9.52
2023-01-13T12:21:22.210Z,8.45
2023-01-13T12:24:17.716Z,8.57
2023-01-13T12:27:03.608Z,9.77
2023-01-13T12:29:34.553Z,6.60
2023-01-13T12:32:04.714Z,8.70
2023-01-13T12:34:41.664Z,5.10
2023-01-13T12:37:22.611Z,8.30
2023-01-13T12:40:05.927Z,6.88
2023-01-13T12:43:26.716Z,4.83
2023-01-13T12:45:53.256Z,6.72
2023-01-13T12:48:45.544Z,7.22
2023-01-13T12:51:56.521Z,11.65
2023-01-13T12:54:41.282Z,5.15
2023-01-13T12:57:16.847Z,3.60
2023-01-13T12:59:49.097Z,5.80
2023-01-13T13:02:15.992Z,6.88
2023-01-13T13:04:44.268Z,6.70
2023-01-13T13:07:16.651Z,10.27
2023-01-13T13:09:49.336Z,9.67
2023-01-13T13:12:49.819Z,8.63
2023-01-13T13:15:21.937Z,10.65
2023-01-13T13:18:03.713Z,5.90
2023-01-13T13:20:53.932Z,5.03
2023-01-13T13:23:36.491Z,6.97
2023-01-13T13:26:26.664Z,3.45
2023-01-13T13:29:14.637Z,5.53
2023-01-13T13:31:59.704Z,7.10
2023-01-13T13:34:38.323Z,9.52
2023-01-13T13:37:23.555Z,6.40
2023-01-13T13:40:08.542Z,10.90
2023-01-13T13:43:02.519Z,4.88
2023-01-13T13:45:47.357Z,7.90
2023-01-13T13:48:30.627Z,5.32
2023-01-13T13:51:04.630Z,5.13
2023-01-13T13:53:35.282Z,4.80
2023-01-13T13:56:05.043Z,5.20
2023-01-13T13:58:35.635Z,8.68
2023-01-13T14:01:04.515Z,6.18
2023-01-13T14:03:34.434Z,7.47
2023-01-13T14:06:02.659Z,7.28
2023-01-13T14:08:32.703Z,5.75
2023-01-13T14:10:59.297Z,7.38
2023-01-13T14:13:29.726Z,7.47
2023-01-13T14:15:59.063Z,7.93
2023-01-13T14:18:27.050Z,4.60
2023-01-13T14:20:54.654Z,3.88
2023-01-13T14:23:26.438Z,7.45
2023-01-13T14:25:53.451Z,6.80
2023-01-13T14:28:32.326Z,6.83
2023-01-13T14:30:59.134Z,8.77
2023-01-13T14:33:38.892Z,8.32
2023-01-13T14:36:19.394Z,6.85
2023-01-13T14:38:49.419Z,8.98
2023-01-13T14:41:25.729Z,5.70
2023-01-13T14:43:56.873Z,7.78
2023-01-13T14:46:25.481Z,7.03
2023-01-13T14:48:59.762Z,8.90
2023-01-13T14:51:29.313Z,7.22
2023-01-13T14:53:57.026Z,8.27
2023-01-13T14:56:42.678Z,7.80
2023-01-13T14:59:40.083Z,4.88
2023-01-13T15:02:24.944Z,4.82
2023-01-13T15:04:58.599Z,5.00
2023-01-13T15:07:28.304Z,5.60
2023-01-13T15:10:04.246Z,6.43
2023-01-13T15:12:40.867Z,8.00
2023-01-13T15:15:20.234Z,6.57
2023-01-13T15:17:46.857Z,9.15
2023-01-13T15:20:15.271Z,10.60
2023-01-13T15:22:41.664Z,4.63
2023-01-13T15:25:12.029Z,7.88
2023-01-13T15:27:38.963Z,9.05
2023-01-13T15:30:25.313Z,8.73
2023-01-13T15:32:56.184Z,8.53
2023-01-13T15:35:24.511Z,11.27
2023-01-13T15:37:51.143Z,9.88
2023-01-13T15:40:20.539Z,9.75
2023-01-13T15:43:06.010Z,7.90
2023-01-13T15:45:53.296Z,4.97
2023-01-13T15:48:21.851Z,6.82
2023-01-13T15:50:48.381Z,6.43
2023-01-13T15:53:15.544Z,4.28
2023-01-13T15:55:44.999Z,7.32
2023-01-13T15:58:12.937Z,6.60
2023-01-13T16:00:40.250Z,7.75
2023-01-13T16:03:07.020Z,7.70
2023-01-13T16:05:33.436Z,6.03
2023-01-13T16:07:59.886Z,6.13
2023-01-13T16:10:28.305Z,7.73
2023-01-13T16:12:57.732Z,9.55
2023-01-13T16:15:25.869Z,12.32
2023-01-13T16:18:00.964Z,3.97
2023-01-13T16:20:27.642Z,6.95
2023-01-13T16:22:53.995Z,7.03
2023-01-13T16:25:22.838Z,2.80
2023-01-13T16:27:49.434Z,3.78
2023-01-13T16:30:26.528Z,4.55
2023-01-13T16:32:52.953Z,9.57
2023-01-13T16:35:19.501Z,8.37
2023-01-13T16:37:49.228Z,7.75
2023-01-13T16:40:31.371Z,5.97
2023-01-13T16:42:58.234Z,9.30
2023-01-13T16:45:25.210Z,7.65
2023-01-13T16:47:51.742Z,6.93
2023-01-13T16:50:42.287Z,8.00
2023-01-13T16:53:10.588Z,6.00
2023-01-13T16:55:41.330Z,5.45
2023-01-13T16:58:17.421Z,3.42
2023-01-13T17:00:46.832Z,3.00
2023-01-13T17:03:15.036Z,2.95
2023-01-13T17:05:43.160Z,5.28
2023-01-13T17:08:15.347Z,4.97
2023-01-13T17:10:41.751Z,6.10
2023-01-13T17:13:16.002Z,6.23
2023-01-13T17:15:43.706Z,3.60
2023-01-13T17:18:11.442Z,5.55
2023-01-13T17:20:37.914Z,7.72
2023-01-13T17:23:04.325Z,5.53
2023-01-13T17:25:30.742Z,3.67
2023-01-13T17:27:57.629Z,6.93
2023-01-13T17:30:24.275Z,4.65
2023-01-13T17:32:50.708Z,3.30
2023-01-13T17:35:19.406Z,4.70
2023-01-13T17:37:46.078Z,3.27
2023-01-13T17:40:12.879Z,1.67
2023-01-13T17:42:39.391Z,3.17
2023-01-13T17:45:06.934Z,2.65
2023-01-13T17:47:33.407Z,2.47
2023-01-13T17:49:59.931Z,1.33
2023-01-13T17:52:26.399Z,1.17
2023-01-13T17:54:52.933Z,3.35
2023-01-13T17:57:19.381Z,1.33
2023-01-13T17:59:47.932Z,1.52
2023-01-13T18:02:14.639Z,2.93
2023-01-13T18:04:42.329Z,4.75
2023-01-13T18:07:08.789Z,2.67
2023-01-13T18:09:35.212Z,1.75
2023-01-13T18:12:01.888Z,4.88
2023-01-13T18:14:28.313Z,3.77
2023-01-13T18:16:54.783Z,3.10
2023-01-13T18:19:39.903Z,2.00
2023-01-13T18:22:24.717Z,2.53
2023-01-13T18:25:09.538Z,3.28
2023-01-13T18:27:38.436Z,4.57
2023-01-13T18:30:06.529Z,3.75
2023-01-13T18:32:33.608Z,6.03
2023-01-13T18:35:10.004Z,6.20
2023-01-13T18:37:41.978Z,2.65
2023-01-13T18:40:11.075Z,2.97
2023-01-13T18:42:56.131Z,5.53
2023-01-13T18:45:31.576Z,3.50
2023-01-13T18:48:00.418Z,6.93
2023-01-13T18:50:28.041Z,6.40
2023-01-13T18:52:54.816Z,6.40
2023-01-13T18:55:21.899Z,6.13
2023-01-13T18:57:48.480Z,4.22
2023-01-13T19:00:17.596Z,4.00
2023-01-13T19:02:45.213Z,1.75
2023-01-13T19:05:11.695Z,5.17
2023-01-13T19:07:39.030Z,4.45
2023-01-13T19:10:09.507Z,2.72
2023-01-13T19:12:35.978Z,1.98
2023-01-13T19:15:02.897Z,5.65
2023-01-13T19:17:34.546Z,5.77
2023-01-13T19:20:01.741Z,7.97
2023-01-13T19:22:33.644Z,6.05
2023-01-13T19:25:01.644Z,3.67
2023-01-13T19:27:30.200Z,8.82
2023-01-13T19:30:03.608Z,6.43
2023-01-13T19:32:32.413Z,4.82
2023-01-13T19:34:59.634Z,3.78
2023-01-13T19:37:30.493Z,8.68
2023-01-13T19:40:00.478Z,4.82
2023-01-13T19:42:46.215Z,5.00
2023-01-13T19:45:26.604Z,7.30
2023-01-13T19:47:54.152Z,7.78
2023-01-13T19:50:20.531Z,13.35
2023-01-13T19:52:46.919Z,25.90
2023-01-13T19:55:13.355Z,9.07
2023-01-13T19:57:40.698Z,7.85
2023-01-13T20:00:08.779Z,7.97
2023-01-13T20:02:36.889Z,4.20
2023-01-13T20:05:06.468Z,3.53
2023-01-13T20:07:33.432Z,5.63
2023-01-13T20:10:01.567Z,4.45
2023-01-13T20:12:29.394Z,5.10
2023-01-13T20:14:56.573Z,6.55
2023-01-13T20:17:26.841Z,6.10
2023-01-13T20:19:53.634Z,6.47
2023-01-13T20:22:20.647Z,5.45
2023-01-13T20:24:48.589Z,5.78
2023-01-13T20:27:15.202Z,5.95
2023-01-13T20:29:41.836Z,4.05
2023-01-13T20:32:08.237Z,4.30
2023-01-13T20:34:34.836Z,7.95
2023-01-13T20:37:01.326Z,4.30
2023-01-13T20:39:27.954Z,4.60
2023-01-13T20:42:13.878Z,5.18
2023-01-13T20:44:41.135Z,5.27
2023-01-13T20:47:08.127Z,6.35
2023-01-13T20:49:36.780Z,6.63
2023-01-13T20:52:09.298Z,4.80
2023-01-13T20:54:36.763Z,5.07
2023-01-13T20:57:04.860Z,7.20
2023-01-13T20:59:31.295Z,4.90
2023-01-13T21:01:58.051Z,8.25
2023-01-13T21:04:24.525Z,4.40
2023-01-13T21:06:51.071Z,6.03
2023-01-13T21:09:17.578Z,5.63
2023-01-13T21:12:02.359Z,7.07
2023-01-13T21:14:47.631Z,7.10
2023-01-13T21:17:34.204Z,8.40
2023-01-13T21:20:02.300Z,6.35
2023-01-13T21:22:30.033Z,5.47
2023-01-13T21:24:57.860Z,6.97
2023-01-13T21:27:24.964Z,7.10
2023-01-13T21:29:51.497Z,7.90
2023-01-13T21:32:17.869Z,6.47
2023-01-13T21:34:44.308Z,4.77
2023-01-13T21:37:10.717Z,9.27
2023-01-13T21:39:37.120Z,5.95
2023-01-13T21:42:21.960Z,6.05
2023-01-13T21:45:07.254Z,5.65
2023-01-13T21:47:48.943Z,7.83
2023-01-13T21:50:21.129Z,6.20
2023-01-13T21:52:48.657Z,5.32
2023-01-13T21:55:28.265Z,7.90
2023-01-13T21:58:21.046Z,7.13
2023-01-13T22:00:49.129Z,6.00
2023-01-13T22:03:16.002Z,6.03
2023-01-13T22:05:42.454Z,8.25
2023-01-13T22:08:12.427Z,8.02
2023-01-13T22:10:56.952Z,5.55
2023-01-13T22:13:41.942Z,10.30
2023-01-13T22:16:09.172Z,6.88
2023-01-13T22:18:35.568Z,3.30
2023-01-13T22:21:01.970Z,4.57
2023-01-13T22:23:28.398Z,6.55
2023-01-13T22:26:05.965Z,8.20
2023-01-13T22:28:40.618Z,3.40
2023-01-13T22:31:12.038Z,9.52
2023-01-13T22:33:39.822Z,6.43
2023-01-13T22:36:07.828Z,10.40
2023-01-13T22:38:35.093Z,5.70
2023-01-13T22:41:06.256Z,4.20
2023-01-13T22:43:33.452Z,7.78
2023-01-13T22:46:02.271Z,7.93
2023-01-13T22:48:28.894Z,6.22
2023-01-13T22:50:56.192Z,5.23
2023-01-13T22:53:23.148Z,4.75
2023-01-13T22:55:59.577Z,5.55
2023-01-13T22:58:26.643Z,6.47
2023-01-13T23:00:53.540Z,6.10
2023-01-13T23:03:19.941Z,6.30
2023-01-13T23:05:46.406Z,9.23
2023-01-13T23:08:13.153Z,2.83
2023-01-13T23:10:40.919Z,4.43
2023-01-13T23:13:08.634Z,6.28
2023-01-13T23:15:35.407Z,9.27
2023-01-13T23:18:02.745Z,5.63
2023-01-13T23:20:30.605Z,9.82
2023-01-13T23:23:00.093Z,4.63
2023-01-13T23:25:26.687Z,7.13
2023-01-13T23:27:53.120Z,5.47
2023-01-13T23:30:19.602Z,9.40
2023-01-13T23:32:45.993Z,4.90
2023-01-13T23:35:12.704Z,11.45
2023-01-13T23:37:39.258Z,6.03
2023-01-13T23:40:06.660Z,4.87
2023-01-13T23:42:33.152Z,6.50
2023-01-13T23:44:59.512Z,10.43
2023-01-13T23:47:25.968Z,6.70
2023-01-13T23:49:52.444Z,5.38
2023-01-13T23:52:18.861Z,5.10
2023-01-13T23:54:45.368Z,6.50
2023-01-13T23:57:11.819Z,5.70
2023-01-13T23:59:38.186Z,4.22
